Time;durP1;ratioP1;P1;durP2;ratioP2;P2;SDS_P1;SDS_P2;PMS_P1;PMS_P2;Temp;Humidity;BMP_temperature;BMP_pressure;BME280_temperature;BME280_humidity;BME280_pressure;Samples;Min_cycle;Max_cycle;Signal;HPM_P1;HPM_P2
2022/05/31 00:00:27;;;;;;;11.43;5.90;;;;;;;;;;6189057;23;20198;-86
2022/05/31 00:02:55;;;;;;;9.60;5.43;;;7.70;99.90;;;;;;6215504;23;20147;-85
2022/05/31 00:05:21;;;;;;;7.93;5.50;;;;;;;;;;6215295;23;20155;-86
2022/05/31 00:07:47;;;;;;;9.33;5.23;;;;;;;;;;6215033;23;20554;-87
2022/05/31 00:10:17;;;;;;;9.70;5.30;;;7.60;99.90;;;;;;6188576;23;20257;-86
2022/05/31 00:12:43;;;;;;;7.10;4.87;;;7.60;99.90;;;;;;6215204;23;20179;-85
2022/05/31 00:15:12;;;;;;;7.93;4.97;;;7.60;99.90;;;;;;6188799;23;20587;-86
2022/05/31 00:17:45;;;;;;;7.47;5.47;;;;;;;;;;6188574;23;20152;-85
2022/05/31 00:20:13;;;;;;;9.60;5.00;;;7.60;99.90;;;;;;6190288;23;20140;-86
2022/05/31 00:22:40;;;;;;;8.40;5.07;;;7.60;99.90;;;;;;6188999;23;20156;-86
2022/05/31 00:25:06;;;;;;;6.87;5.37;;;7.60;99.90;;;;;;6215301;23;20152;-86
2022/05/31 00:27:32;;;;;;;7.83;5.07;;;;;;;;;;6189117;23;20198;-86
2022/05/31 00:29:59;;;;;;;9.30;5.43;;;;;;;;;;6214953;23;20603;-86
2022/05/31 00:32:33;;;;;;;6.63;4.40;;;7.50;99.90;;;;;;6189020;23;20167;-86
2022/05/31 00:35:10;;;;;;;7.87;5.53;;;7.50;99.90;;;;;;6188718;23;20201;-87
2022/05/31 00:37:37;;;;;;;6.30;4.83;;;;;;;;;;6165469;23;20198;-86
2022/05/31 00:40:04;;;;;;;9.97;5.23;;;7.70;99.90;;;;;;6188581;23;20164;-87
2022/05/31 00:42:49;;;;;;;6.73;4.20;;;7.40;99.90;;;;;;6164099;23;20160;-87
2022/05/31 00:45:15;;;;;;;8.57;5.07;;;;;;;;;;6188667;23;20506;-86
2022/05/31 00:47:44;;;;;;;5.97;4.70;;;;;;;;;;6188770;23;20166;-87
2022/05/31 00:50:34;;;;;;;10.07;5.47;;;7.40;99.90;;;;;;6188665;23;20164;-87
2022/05/31 00:53:05;;;;;;;7.30;4.27;;;7.40;99.90;;;;;;6188496;23;20164;-87
2022/05/31 00:55:52;;;;;;;6.93;5.30;;;7.40;99.90;;;;;;6188861;23;20213;-86
2022/05/31 00:58:30;;;;;;;6.87;5.13;;;7.40;99.90;;;;;;6188504;23;20179;-87
2022/05/31 01:01:16;;;;;;;7.40;4.67;;;7.40;99.90;;;;;;6188583;23;20156;-86
2022/05/31 01:03:45;;;;;;;5.17;4.67;;;7.40;99.90;;;;;;6189030;23;20648;-86
2022/05/31 01:06:11;;;;;;;10.50;4.90;;;7.40;99.90;;;;;;6188817;23;20234;-86
2022/05/31 01:08:54;;;;;;;;;;;;;;;;;;;;;
2022/05/31 01:11:23;;;;;;;8.43;5.30;;;7.30;99.90;;;;;;6217359;23;20266;-86
2022/05/31 01:13:49;;;;;;;7.90;4.87;;;;;;;;;;6190750;23;20184;-86
2022/05/31 01:16:15;;;;;;;7.93;5.03;;;7.30;99.90;;;;;;6165401;23;20200;-86
2022/05/31 01:18:42;;;;;;;7.30;4.10;;;;;;;;;;6190836;23;20156;-86
2022/05/31 01:21:10;;;;;;;7.23;4.77;;;7.20;99.90;;;;;;6190285;23;20205;-86
2022/05/31 01:24:12;;;;;;;8.33;4.97;;;7.20;99.90;;;;;;6190751;23;20468;-86
2022/05/31 01:26:38;;;;;;;6.13;4.60;;;;;;;;;;6216119;23;20198;-86
2022/05/31 01:29:25;;;;;;;;;;;;;;;;;;;;;
2022/05/31 01:31:52;;;;;;;7.20;4.33;;;;;;;;;;6216839;23;20246;-86
2022/05/31 01:34:34;;;;;;;9.23;5.20;;;7.10;99.90;;;;;;6190285;23;20160;-86
2022/05/31 01:37:04;;;;;;;8.67;5.30;;;7.20;99.90;;;;;;6216601;23;20638;-88
2022/05/31 01:39:43;;;;;;;6.47;4.93;;;7.10;99.90;;;;;;6190598;23;20164;-87
2022/05/31 01:42:31;;;;;;;9.73;5.17;;;7.20;99.90;;;;;;6190132;23;20242;-87
2022/05/31 01:45:03;;;;;;;9.40;4.30;;;7.10;99.90;;;;;;6190546;23;20650;-86
2022/05/31 01:47:32;;;;;;;11.53;4.60;;;7.10;99.90;;;;;;6190576;23;20165;-87
2022/05/31 01:49:58;;;;;;;14.60;6.07;;;;;;;;;;6190408;23;20247;-86
2022/05/31 01:52:24;;;;;;;8.93;5.07;;;;;;;;;;6190061;23;20209;-86
2022/05/31 01:54:54;;;;;;;9.13;5.40;;;7.00;99.90;;;;;;6190365;23;20203;-86
2022/05/31 01:57:23;;;;;;;7.53;4.83;;;7.10;99.90;;;;;;6165956;23;20197;-87
2022/05/31 02:00:04;;;;;;;8.53;4.57;;;7.00;99.90;;;;;;6217231;23;20151;-86
2022/05/31 02:02:32;;;;;;;10.13;6.00;;;7.00;99.90;;;;;;6190575;23;20163;-86
2022/05/31 02:05:01;;;;;;;7.17;4.60;;;;;;;;;;6190087;23;20159;-87
2022/05/31 02:07:31;;;;;;;9.57;5.50;;;7.00;99.90;;;;;;6190614;23;20155;-86
2022/05/31 02:09:58;;;;;;;10.00;5.60;;;;;;;;;;6190569;23;20198;-86
2022/05/31 02:12:28;;;;;;;9.80;5.23;;;6.90;99.90;;;;;;6191238;23;20909;-86
2022/05/31 02:14:54;;;;;;;6.50;4.77;;;;;;;;;;6190112;23;20571;-86
2022/05/31 02:17:21;;;;;;;9.10;5.57;;;6.90;99.90;;;;;;6188964;23;20196;-86
2022/05/31 02:19:49;;;;;;;9.10;5.67;;;;;;;;;;6164466;23;20164;-86
2022/05/31 02:22:27;;;;;;;8.00;5.40;;;6.90;99.90;;;;;;6188371;23;20166;-86
2022/05/31 02:24:55;;;;;;;12.97;5.90;;;;;;;;;;6189769;23;20163;-86
2022/05/31 02:27:21;;;;;;;7.33;4.87;;;;;;;;;;6217109;23;20231;-86
2022/05/31 02:29:50;;;;;;;14.93;6.33;;;;;;;;;;6165704;23;20171;-87
2022/05/31 02:32:19;;;;;;;9.17;6.73;;;;;;;;;;6166234;23;20160;-86
2022/05/31 02:34:49;;;;;;;8.30;7.03;;;6.90;99.90;;;;;;6192549;23;20160;-86
2022/05/31 02:37:21;;;;;;;6.70;5.10;;;6.80;99.90;;;;;;6202274;23;20267;-85
2022/05/31 02:39:50;;;;;;;10.83;6.27;;;;;;;;;;6202589;23;20228;-86
2022/05/31 02:42:17;;;;;;;10.43;5.93;;;6.80;99.90;;;;;;6190037;23;20294;-89
2022/05/31 02:44:43;;;;;;;9.40;5.93;;;;;;;;;;6208369;23;20150;-85
2022/05/31 02:47:12;;;;;;;7.80;5.47;;;;;;;;;;6218048;23;20163;-87
2022/05/31 02:49:43;;;;;;;11.33;5.63;;;6.90;99.90;;;;;;6215834;23;20156;-85
2022/05/31 02:52:11;;;;;;;6.07;5.03;;;;;;;;;;6218056;23;20167;-85
2022/05/31 02:54:37;;;;;;;7.83;4.97;;;;;;;;;;6242665;23;20212;-85
2022/05/31 02:57:04;;;;;;;10.10;6.23;;;6.80;99.90;;;;;;6243347;23;20188;-85
2022/05/31 02:59:30;;;;;;;8.43;5.63;;;;;;;;;;6192024;23;20167;-85
2022/05/31 03:02:01;;;;;;;9.90;5.97;;;6.90;99.90;;;;;;6242742;23;20168;-86
2022/05/31 03:04:27;;;;;;;8.10;5.23;;;;;;;;;;6217041;23;20170;-86
2022/05/31 03:07:03;;;;;;;;;;;;;;;;;;;;;
2022/05/31 03:09:32;;;;;;;8.80;6.17;;;7.00;99.90;;;;;;6219444;23;20135;-87
2022/05/31 03:12:06;;;;;;;15.67;5.53;;;7.00;99.90;;;;;;6243371;23;20151;-87
2022/05/31 03:14:38;;;;;;;7.70;4.87;;;7.10;99.90;;;;;;6191722;23;20174;-86
2022/05/31 03:17:26;;;;;;;5.90;4.90;;;7.20;99.90;;;;;;6205197;23;20199;-86
2022/05/31 03:20:25;;;;;;;7.20;5.10;;;7.00;99.90;;;;;;6189583;23;20163;-86
2022/05/31 03:23:00;;;;;;;6.10;4.27;;;7.20;99.90;;;;;;6189307;23;20152;-86
2022/05/31 03:25:28;;;;;;;8.57;5.40;;;7.30;99.90;;;;;;6189786;23;20197;-86
2022/05/31 03:28:17;;;;;;;13.93;6.70;;;7.40;99.90;;;;;;6189336;23;20159;-86
2022/05/31 03:30:43;;;;;;;11.93;6.30;;;;;;;;;;6189226;23;20210;-86
2022/05/31 03:33:15;;;;;;;15.17;7.17;;;7.50;99.90;;;;;;6164972;23;20163;-87
2022/05/31 03:35:43;;;;;;;11.63;7.20;;;7.60;99.90;;;;;;6189041;23;20187;-86
2022/05/31 03:38:09;;;;;;;11.10;6.97;;;;;;;;;;6189317;23;20167;-86
2022/05/31 03:43:20;;;;;;;7.67;5.27;;;;;;;;;;6216674;23;20198;-87
2022/05/31 03:45:46;;;;;;;6.30;4.90;;;;;;;;;;6189990;23;20587;-87
2022/05/31 03:48:12;;;;;;;10.47;5.80;;;;;;;;;;6217457;23;20497;-87
2022/05/31 03:50:39;;;;;;;8.00;5.17;;;;;;;;;;6190243;23;20160;-87
2022/05/31 03:53:06;;;;;;;8.10;5.47;;;8.30;99.90;;;;;;6164691;23;20160;-87
2022/05/31 03:55:32;;;;;;;7.50;4.60;;;;;;;;;;6189408;23;20698;-86
2022/05/31 03:57:58;;;;;;;7.27;4.83;;;;;;;;;;6166213;23;20183;-87
2022/05/31 04:00:26;;;;;;;7.47;4.93;;;;;;;;;;6191780;23;20243;-88
2022/05/31 04:02:55;;;;;;;8.70;5.30;;;;;;;;;;6170292;23;20187;-88
2022/05/31 04:05:21;;;;;;;6.67;4.50;;;;;;;;;;6193116;23;20485;-89
2022/05/31 04:07:55;;;;;;;5.70;4.13;;;9.00;99.90;;;;;;6195482;23;20160;-87
2022/05/31 04:10:26;;;;;;;9.83;5.63;;;9.10;99.90;;;;;;6187187;23;20199;-87
2022/05/31 04:12:53;;;;;;;7.23;4.97;;;;;;;;;;6188840;23;20188;-87
2022/05/31 04:15:21;;;;;;;4.13;3.47;;;;;;;;;;6186609;23;20206;-88
2022/05/31 04:17:49;;;;;;;7.00;4.50;;;9.40;99.90;;;;;;6184336;23;20161;-88
2022/05/31 04:20:19;;;;;;;7.03;4.83;;;9.60;99.90;;;;;;6161052;23;20157;-87
2022/05/31 04:22:46;;;;;;;6.07;4.60;;;;;;;;;;6187310;23;20157;-88
2022/05/31 04:25:15;;;;;;;5.53;4.20;;;;;;;;;;6184347;23;20156;-88
2022/05/31 04:27:41;;;;;;;8.07;4.93;;;;;;;;;;6183933;23;20244;-88
2022/05/31 04:30:10;;;;;;;7.00;5.00;;;;;;;;;;6184158;23;20487;-88
2022/05/31 04:32:36;;;;;;;13.77;4.77;;;10.30;99.90;;;;;;6183897;23;20148;-87
2022/05/31 04:35:08;;;;;;;8.60;4.50;;;10.30;99.90;;;;;;6181684;23;20160;-87
2022/05/31 04:37:48;;;;;;;;;;;;;;;;;;;;;
2022/05/31 04:40:17;;;;;;;5.40;4.27;;;10.70;99.90;;;;;;6183865;23;20511;-88
2022/05/31 04:42:43;;;;;;;5.28;4.18;;;;;;;;;;6184072;23;20611;-88
2022/05/31 04:45:09;;;;;;;3.80;3.28;;;11.00;99.90;;;;;;6184342;23;20164;-89
2022/05/31 04:47:38;;;;;;;5.68;4.20;;;;;;;;;;6183428;23;20156;-90
2022/05/31 04:50:04;;;;;;;5.10;3.63;;;;;;;;;;6184945;23;20157;-88
2022/05/31 04:52:32;;;;;;;5.30;3.78;;;9.30;99.90;;;;;;6184209;23;20163;-88
2022/05/31 04:55:02;;;;;;;5.28;3.85;;;11.50;99.90;;;;;;6134742;23;20160;-88
2022/05/31 04:57:28;;;;;;;4.50;3.47;;;11.60;99.90;;;;;;6184151;23;20184;-88
2022/05/31 04:59:54;;;;;;;4.18;3.05;;;;;;;;;;6187781;23;20588;-90
2022/05/31 05:02:22;;;;;;;4.22;3.38;;;11.70;99.90;;;;;;6185842;23;20175;-89
2022/05/31 05:04:53;;;;;;;4.50;3.03;;;12.20;99.90;;;;;;6159353;23;20187;-90
2022/05/31 05:07:21;;;;;;;4.18;3.20;;;12.00;99.90;;;;;;6158133;23;20250;-89
2022/05/31 05:09:47;;;;;;;4.35;2.90;;;13.80;99.90;;;;;;6159098;23;20208;-90
2022/05/31 05:12:13;;;;;;;3.42;2.90;;;;;;;;;;6184123;23;20607;-89
2022/05/31 05:14:42;;;;;;;2.72;2.25;;;;;;;;;;6185427;23;20211;-90
2022/05/31 05:17:10;;;;;;;3.70;3.00;;;12.60;99.90;;;;;;6185957;23;20627;-91
2022/05/31 05:19:36;;;;;;;4.68;2.90;;;;;;;;;;6160747;23;20558;-90
2022/05/31 05:22:02;;;;;;;3.75;3.15;;;;;;;;;;6183924;23;20578;-89
2022/05/31 05:24:33;;;;;;;4.15;2.65;;;13.00;99.90;;;;;;6184035;23;20282;-90
2022/05/31 05:26:59;;;;;;;2.65;2.38;;;;;;;;;;6186208;23;20160;-88
2022/05/31 05:32:09;;;;;;;5.38;2.40;;;13.50;99.90;;;;;;6188877;23;20152;-89
2022/05/31 05:34:35;;;;;;;2.25;1.92;;;13.30;99.90;;;;;;6161389;23;20172;-89
2022/05/31 05:37:00;;;;;;;3.58;2.35;;;13.50;99.90;;;;;;6189960;23;20515;-90
2022/05/31 05:39:26;;;;;;;3.05;2.13;;;;;;;;;;6189849;23;20156;-89
2022/05/31 05:41:52;;;;;;;2.05;1.88;;;13.60;99.90;;;;;;6199741;23;20208;-89
2022/05/31 05:44:18;;;;;;;1.52;1.42;;;13.70;99.90;;;;;;6162364;23;20168;-88
2022/05/31 05:46:43;;;;;;;1.80;1.70;;;13.80;99.90;;;;;;6187511;23;20180;-88
2022/05/31 05:49:09;;;;;;;3.10;2.08;;;13.90;99.90;;;;;;6162017;23;20155;-87
2022/05/31 05:51:35;;;;;;;2.55;2.08;;;14.00;99.90;;;;;;6209519;23;20145;-87
2022/05/31 05:54:02;;;;;;;2.00;1.70;;;14.10;99.90;;;;;;6208357;23;20149;-87
2022/05/31 05:56:29;;;;;;;2.75;1.80;;;14.30;99.90;;;;;;6191057;23;20184;-90
2022/05/31 05:58:55;;;;;;;2.30;1.75;;;14.40;99.90;;;;;;6164845;23;20184;-88
2022/05/31 06:01:31;;;;;;;2.55;1.80;;;14.40;99.90;;;;;;6185372;23;20159;-88
2022/05/31 06:04:21;;;;;;;4.97;2.08;;;14.50;99.90;;;;;;6196254;23;20152;-89
2022/05/31 06:06:51;;;;;;;1.67;1.55;;;14.60;99.90;;;;;;6206408;23;20141;-87
2022/05/31 06:09:22;;;;;;;1.60;1.50;;;14.60;99.90;;;;;;6194167;23;20163;-88
2022/05/31 06:11:55;;;;;;;2.42;1.75;;;14.40;99.90;;;;;;6231813;23;20141;-88
2022/05/31 06:14:25;;;;;;;2.95;1.90;;;14.80;99.90;;;;;;6230827;23;20147;-90
2022/05/31 06:16:58;;;;;;;2.15;1.90;;;14.60;99.90;;;;;;6218985;23;20237;-89
2022/05/31 06:19:34;;;;;;;2.03;1.90;;;14.80;99.90;;;;;;6195109;23;20246;-88
2022/05/31 06:22:00;;;;;;;1.90;1.70;;;14.90;99.90;;;;;;6192498;23;20688;-88
2022/05/31 06:24:32;;;;;;;1.75;1.55;;;14.80;99.90;;;;;;6195489;23;20155;-91
2022/05/31 06:26:57;;;;;;;2.85;1.80;;;14.90;99.90;;;;;;6197190;23;20160;-90
2022/05/31 06:29:23;;;;;;;1.80;1.48;;;15.00;99.90;;;;;;6185922;23;20517;-88
2022/05/31 06:31:49;;;;;;;1.65;1.40;;;;;;;;;;6199069;23;20168;-89
2022/05/31 06:34:18;;;;;;;1.60;1.50;;;15.20;99.90;;;;;;6195451;23;20167;-89
2022/05/31 06:36:43;;;;;;;2.17;1.80;;;15.30;99.90;;;;;;6168873;23;20192;-88
2022/05/31 06:39:09;;;;;;;2.05;1.88;;;15.40;99.90;;;;;;6199654;23;20152;-89
2022/05/31 06:41:36;;;;;;;1.67;1.52;;;15.80;99.90;;;;;;6188666;23;20156;-87
2022/05/31 06:44:02;;;;;;;2.83;2.10;;;15.70;99.90;;;;;;6198502;23;20159;-89
2022/05/31 06:46:30;;;;;;;2.30;1.90;;;15.80;99.90;;;;;;6192186;23;20167;-90
2022/05/31 06:48:58;;;;;;;2.15;1.83;;;15.70;99.90;;;;;;6196599;23;20674;-90
2022/05/31 06:56:57;;;;;;;4.32;1.77;;;16.10;99.90;;;;;;6192947;23;20234;-89
2022/05/31 06:59:23;;;;;;;1.92;1.73;;;;;;;;;;6219221;23;20144;-89
2022/05/31 07:01:49;;;;;;;1.52;1.42;;;16.20;99.90;;;;;;6191477;23;20247;-88
2022/05/31 07:04:16;;;;;;;4.07;1.80;;;16.00;99.90;;;;;;6217263;23;20463;-90
2022/05/31 07:06:42;;;;;;;1.50;1.40;;;16.10;99.90;;;;;;6191392;23;20170;-90
2022/05/31 07:09:08;;;;;;;1.60;1.50;;;16.10;99.90;;;;;;6189128;23;20164;-89
2022/05/31 07:11:34;;;;;;;5.20;1.70;;;;;;;;;;6143216;23;20965;-88
2022/05/31 07:14:01;;;;;;;3.63;2.08;;;16.30;99.90;;;;;;6217695;23;20174;-89
2022/05/31 07:16:27;;;;;;;1.55;1.45;;;16.50;99.90;;;;;;6191646;23;20191;-88
2022/05/31 07:18:55;;;;;;;1.63;1.52;;;16.50;99.90;;;;;;6189464;23;20166;-89
2022/05/31 07:21:20;;;;;;;1.42;1.33;;;16.40;99.90;;;;;;6190188;23;20156;-89
2022/05/31 07:23:47;;;;;;;1.50;1.40;;;;;;;;;;6194794;23;20159;-88
2022/05/31 07:26:12;;;;;;;1.50;1.40;;;16.40;99.90;;;;;;6191356;23;20163;-91
2022/05/31 07:28:39;;;;;;;2.90;2.00;;;16.40;99.90;;;;;;6224604;23;20152;-86
2022/05/31 07:31:05;;;;;;;2.45;1.50;;;16.40;99.90;;;;;;6189409;23;20198;-90
2022/05/31 07:33:31;;;;;;;1.48;1.38;;;16.50;99.90;;;;;;6189994;23;20571;-87
2022/05/31 07:35:57;;;;;;;1.55;1.45;;;;;;;;;;6217446;23;20188;-89
2022/05/31 07:38:23;;;;;;;2.17;1.40;;;16.40;99.90;;;;;;6196069;23;20197;-90
2022/05/31 07:40:50;;;;;;;1.50;1.40;;;16.50;99.90;;;;;;6196063;23;20160;-89
2022/05/31 07:43:16;;;;;;;1.85;1.38;;;16.60;99.90;;;;;;6177288;23;20187;-90
2022/05/31 07:45:42;;;;;;;2.90;2.03;;;17.40;99.90;;;;;;6176304;23;20171;-89
2022/05/31 07:48:08;;;;;;;1.02;1.02;;;17.10;99.90;;;;;;6191919;23;20159;-90
2022/05/31 07:50:34;;;;;;;2.55;1.38;;;17.30;99.90;;;;;;6196542;23;20172;-90
2022/05/31 07:53:01;;;;;;;1.52;1.42;;;17.20;99.90;;;;;;6195052;23;20453;-91
2022/05/31 07:55:28;;;;;;;1.55;1.35;;;17.20;99.90;;;;;;6194975;23;20229;-90
2022/05/31 08:00:39;;;;;;;2.03;1.80;;;17.00;99.90;;;;;;6217528;23;20155;-87
2022/05/31 08:03:05;;;;;;;1.58;1.48;;;17.00;99.90;;;;;;6218264;23;20162;-87
2022/05/31 08:05:32;;;;;;;1.98;1.42;;;17.10;99.90;;;;;;6224105;23;20148;-89
2022/05/31 08:07:57;;;;;;;3.22;1.30;;;17.10;99.90;;;;;;6166572;23;20171;-89
2022/05/31 08:10:23;;;;;;;1.80;1.30;;;17.20;99.90;;;;;;6216120;23;20195;-91
2022/05/31 08:12:49;;;;;;;2.33;1.80;;;17.20;99.90;;;;;;6164621;23;20227;-89
2022/05/31 08:15:15;;;;;;;3.22;1.67;;;17.40;99.90;;;;;;6215907;23;20230;-87
2022/05/31 08:17:42;;;;;;;2.00;1.88;;;17.40;99.90;;;;;;6188949;23;20661;-89
2022/05/31 08:20:09;;;;;;;1.63;1.52;;;17.50;99.90;;;;;;6217075;23;20152;-88
2022/05/31 08:22:35;;;;;;;1.63;1.50;;;17.60;99.90;;;;;;6190721;23;20155;-87
2022/05/31 08:25:02;;;;;;;3.72;2.03;;;17.60;99.90;;;;;;6192086;23;20152;-89
2022/05/31 08:27:28;;;;;;;1.75;1.25;;;17.40;99.90;;;;;;6191154;23;20190;-88
2022/05/31 08:29:53;;;;;;;1.30;1.20;;;17.50;99.90;;;;;;6189532;23;20240;-89
2022/05/31 08:32:20;;;;;;;1.67;1.58;;;17.50;99.90;;;;;;6189148;23;20163;-89
2022/05/31 08:34:47;;;;;;;1.80;1.10;;;17.60;99.90;;;;;;6189445;23;20156;-90
2022/05/31 08:37:13;;;;;;;1.50;1.33;;;17.60;99.90;;;;;;6188971;23;20218;-90
2022/05/31 08:39:39;;;;;;;2.00;1.80;;;17.60;99.90;;;;;;6187601;23;20155;-88
2022/05/31 08:42:08;;;;;;;3.35;1.60;;;17.90;99.90;;;;;;6162492;23;20164;-90
2022/05/31 08:44:48;;;;;;;1.50;1.40;;;17.90;99.90;;;;;;6190025;23;20156;-88
2022/05/31 08:47:24;;;;;;;2.55;1.30;;;18.00;99.50;;;;;;6216205;23;20144;-89
2022/05/31 08:52:54;;;;;;;1.60;1.40;;;18.30;99.90;;;;;;6216366;23;20243;-90
2022/05/31 08:58:24;;;;;;;1.60;1.10;;;18.40;87.50;;;;;;6215896;23;20178;-89
2022/05/31 09:00:52;;;;;;;1.15;1.05;;;18.50;91.20;;;;;;6208238;23;20143;-86
2022/05/31 09:03:30;;;;;;;1.05;1.05;;;18.60;90.50;;;;;;6243191;23;20151;-88
2022/05/31 09:06:02;;;;;;;1.60;1.20;;;18.80;92.80;;;;;;6243519;23;20128;-88
2022/05/31 09:08:38;;;;;;;1.30;1.20;;;18.90;92.60;;;;;;6243247;23;20152;-86
2022/05/31 09:11:16;;;;;;;1.27;1.17;;;19.10;92.70;;;;;;6242776;23;20183;-87
2022/05/31 09:14:04;;;;;;;4.20;1.67;;;19.20;92.40;;;;;;6217425;23;20144;-89
2022/05/31 09:16:35;;;;;;;1.50;1.15;;;19.70;87.00;;;;;;6217319;23;20184;-88
2022/05/31 09:19:05;;;;;;;1.55;1.40;;;19.60;86.50;;;;;;6217472;23;20147;-87
2022/05/31 09:21:41;;;;;;;1.48;1.20;;;19.30;87.30;;;;;;6243168;23;20128;-88
2022/05/31 09:24:15;;;;;;;1.30;1.20;;;19.00;91.00;;;;;;6217336;23;20135;-88
2022/05/31 09:27:16;;;;;;;2.30;1.30;;;19.10;90.20;;;;;;6243506;23;20132;-89
2022/05/31 09:29:50;;;;;;;1.52;1.10;;;19.40;95.90;;;;;;6219333;23;20166;-87
2022/05/31 09:32:48;;;;;;;1.13;1.02;;;19.90;94.50;;;;;;6241225;23;20140;-88
2022/05/31 09:35:27;;;;;;;1.77;1.67;;;19.90;91.10;;;;;;6220419;23;20153;-88
2022/05/31 09:38:23;;;;;;;4.88;1.90;;;19.70;87.00;;;;;;6193295;23;20168;-88
2022/05/31 09:41:08;;;;;;;6.88;1.70;;;19.60;89.30;;;;;;6193321;23;20160;-86
2022/05/31 09:43:45;;;;;;;1.60;1.50;;;19.50;88.50;;;;;;6231399;23;20136;-87
2022/05/31 09:46:41;;;;;;;1.75;1.65;;;19.50;90.50;;;;;;6239930;23;20171;-86
2022/05/31 09:49:23;;;;;;;1.75;1.42;;;19.50;84.60;;;;;;6192664;23;20156;-87
2022/05/31 09:51:49;;;;;;;1.20;1.10;;;19.50;83.00;;;;;;6192131;23;20156;-86
2022/05/31 09:57:06;;;;;;;2.70;1.17;;;19.60;83.70;;;;;;6227735;23;20210;-86
2022/05/31 09:59:35;;;;;;;1.98;1.30;;;19.80;87.30;;;;;;6221550;23;20535;-87
2022/05/31 10:02:28;;;;;;;1.23;1.08;;;19.70;80.20;;;;;;6199649;23;20206;-87
2022/05/31 10:05:20;;;;;;;2.25;1.30;;;19.70;86.30;;;;;;6193901;23;20190;-87
2022/05/31 10:07:47;;;;;;;1.50;1.40;;;20.30;82.00;;;;;;6191648;23;20286;-88
2022/05/31 10:10:27;;;;;;;1.77;1.63;;;20.50;79.10;;;;;;6195795;23;20199;-84
2022/05/31 10:13:13;;;;;;;1.50;1.23;;;20.80;79.70;;;;;;6230903;23;20151;-88
2022/05/31 10:15:45;;;;;;;2.22;1.30;;;20.40;74.20;;;;;;6199288;23;20160;-87
2022/05/31 10:18:27;;;;;;;1.40;1.20;;;20.30;78.60;;;;;;6193714;23;20156;-87
2022/05/31 10:21:02;;;;;;;1.45;1.35;;;20.70;76.30;;;;;;6199077;23;20204;-86
2022/05/31 10:23:47;;;;;;;1.92;1.42;;;20.10;73.00;;;;;;6189710;23;20152;-87
2022/05/31 10:26:24;;;;;;;1.25;1.15;;;19.80;75.20;;;;;;6190218;23;20527;-86
2022/05/31 10:28:56;;;;;;;1.50;1.23;;;19.90;75.60;;;;;;6216972;23;20218;-88
2022/05/31 10:31:30;;;;;;;1.30;1.20;;;20.00;76.40;;;;;;6190108;23;20152;-86
2022/05/31 10:33:59;;;;;;;2.92;1.50;;;19.90;77.50;;;;;;6217645;23;20139;-88
2022/05/31 10:36:48;;;;;;;1.23;1.10;;;19.80;76.50;;;;;;6189937;23;20191;-87
2022/05/31 10:39:20;;;;;;;1.63;1.50;;;19.80;76.90;;;;;;6216436;23;20155;-87
2022/05/31 10:41:48;;;;;;;1.25;1.08;;;20.20;78.90;;;;;;6190191;23;20164;-87
2022/05/31 10:44:28;;;;;;;1.95;1.30;;;19.90;80.50;;;;;;6217065;23;20230;-87
2022/05/31 10:47:02;;;;;;;1.70;1.40;;;19.60;78.00;;;;;;6190172;23;20167;-87
2022/05/31 10:49:28;;;;;;;1.70;1.40;;;19.50;77.70;;;;;;6189420;23;20159;-87
2022/05/31 10:52:05;;;;;;;1.27;1.15;;;19.60;79.10;;;;;;6216788;23;20484;-89
2022/05/31 10:54:55;;;;;;;1.17;1.08;;;19.90;76.50;;;;;;6191001;23;20163;-86
2022/05/31 10:57:42;;;;;;;1.90;1.35;;;20.00;75.90;;;;;;6189864;23;20630;-87
2022/05/31 11:00:20;;;;;;;3.00;1.40;;;20.40;74.40;;;;;;6190246;23;20579;-88
2022/05/31 11:03:10;;;;;;;2.17;1.20;;;20.30;74.20;;;;;;6189506;23;20162;-87
2022/05/31 11:05:36;;;;;;;2.00;1.55;;;20.30;73.80;;;;;;6189042;23;20222;-88
2022/05/31 11:13:59;;;;;;;1.38;1.17;;;20.90;74.30;;;;;;6215973;23;20151;-89
2022/05/31 11:17:00;;;;;;;2.05;0.93;;;20.70;74.00;;;;;;6215814;23;20251;-87
2022/05/31 11:19:50;;;;;;;1.10;1.00;;;20.90;73.30;;;;;;6189210;23;20160;-88
2022/05/31 11:22:38;;;;;;;1.92;1.60;;;21.10;76.00;;;;;;6190463;23;20160;-87
2022/05/31 11:25:34;;;;;;;1.92;1.15;;;21.70;69.70;;;;;;6190550;23;20211;-87
2022/05/31 11:28:11;;;;;;;1.08;1.00;;;21.40;71.20;;;;;;6190036;23;20155;-87
2022/05/31 11:30:54;;;;;;;1.55;1.13;;;21.60;71.00;;;;;;6189472;23;20163;-89
2022/05/31 11:33:32;;;;;;;1.55;1.40;;;21.50;70.40;;;;;;6192376;23;20159;-88
2022/05/31 11:36:36;;;;;;;1.17;1.08;;;21.50;70.40;;;;;;6190643;23;20198;-88
2022/05/31 11:39:26;;;;;;;1.52;1.30;;;21.30;72.50;;;;;;6218078;23;20147;-87
2022/05/31 11:42:14;;;;;;;2.20;1.67;;;21.50;74.10;;;;;;6189821;23;20166;-89
2022/05/31 11:44:54;;;;;;;1.27;1.17;;;18.70;70.60;;;;;;6192564;23;20213;-86
2022/05/31 11:47:26;;;;;;;1.23;1.13;;;22.00;70.60;;;;;;6212218;23;20167;-87
2022/05/31 11:50:13;;;;;;;1.30;1.20;;;21.90;72.70;;;;;;6226332;23;20194;-87
2022/05/31 11:53:11;;;;;;;1.50;1.40;;;21.50;67.80;;;;;;6215409;23;20146;-87
2022/05/31 11:55:50;;;;;;;1.20;1.10;;;21.60;70.70;;;;;;6189190;23;20155;-85
2022/05/31 11:58:39;;;;;;;1.90;1.38;;;21.60;72.00;;;;;;6216728;23;20144;-84
2022/05/31 12:01:23;;;;;;;1.33;1.25;;;21.50;73.40;;;;;;6205814;23;20155;-88
2022/05/31 12:04:17;;;;;;;1.85;1.50;;;21.70;71.20;;;;;;6194994;23;20156;-87
2022/05/31 12:07:13;;;;;;;1.25;1.15;;;21.70;74.70;;;;;;6219916;23;20148;-85
2022/05/31 12:09:54;;;;;;;2.42;1.38;;;21.50;71.20;;;;;;6221398;23;20473;-88
2022/05/31 12:12:33;;;;;;;0.98;0.88;;;21.90;72.90;;;;;;6189884;23;20251;-86
2022/05/31 12:15:11;;;;;;;1.27;1.17;;;21.90;73.70;;;;;;6191738;23;20162;-87
2022/05/31 12:18:09;;;;;;;1.05;0.90;;;21.90;73.30;;;;;;6235609;23;20256;-88
2022/05/31 12:21:01;;;;;;;2.33;1.20;;;22.10;70.00;;;;;;6178747;23;20156;-86
2022/05/31 12:23:44;;;;;;;1.20;0.93;;;22.20;69.80;;;;;;6209132;23;20185;-87
2022/05/31 12:26:33;;;;;;;1.77;1.30;;;22.10;68.90;;;;;;6230537;23;20626;-87
2022/05/31 12:29:00;;;;;;;1.13;1.13;;;;;;;;;;6200931;23;20173;-88
2022/05/31 12:31:32;;;;;;;1.95;1.38;;;21.90;66.70;;;;;;6201462;23;20637;-89
2022/05/31 12:34:20;;;;;;;1.25;1.15;;;21.90;66.50;;;;;;6200432;23;20159;-88
2022/05/31 12:37:12;;;;;;;2.15;1.55;;;22.00;65.10;;;;;;6202334;23;20241;-86
2022/05/31 12:39:39;;;;;;;1.05;0.95;;;21.60;67.70;;;;;;6196974;23;20152;-85
2022/05/31 12:42:14;;;;;;;1.75;1.35;;;21.90;71.40;;;;;;6199621;23;20156;-90
2022/05/31 12:44:44;;;;;;;1.08;1.00;;;22.10;66.30;;;;;;6190619;23;20253;-87
2022/05/31 12:47:26;;;;;;;1.35;1.20;;;22.10;64.10;;;;;;6217458;23;20238;-86
2022/05/31 12:50:03;;;;;;;1.75;1.10;;;22.10;66.60;;;;;;6188682;23;20156;-87
2022/05/31 12:52:52;;;;;;;2.95;1.23;;;22.10;64.40;;;;;;6216629;23;20154;-86
2022/05/31 12:55:26;;;;;;;2.78;1.10;;;22.20;69.00;;;;;;6198745;23;20156;-87
2022/05/31 12:58:30;;;;;;;1.55;1.45;;;22.30;66.60;;;;;;6194923;23;20194;-87
2022/05/31 13:01:04;;;;;;;1.40;1.10;;;22.80;67.60;;;;;;6192610;23;20222;-87
2022/05/31 13:03:33;;;;;;;0.90;0.90;;;22.40;61.30;;;;;;6194050;23;20159;-87
2022/05/31 13:06:22;;;;;;;1.00;0.98;;;22.50;65.00;;;;;;6219578;23;20482;-88
2022/05/31 13:09:01;;;;;;;2.33;1.75;;;22.30;60.00;;;;;;6221455;23;20152;-86
2022/05/31 13:20:13;;;;;;;1.40;1.20;;;22.80;62.20;;;;;;6186291;23;20498;-87
2022/05/31 13:22:44;;;;;;;1.58;1.15;;;22.70;63.70;;;;;;6186618;23;20157;-88
2022/05/31 13:25:40;;;;;;;2.10;1.90;;;22.70;65.30;;;;;;6187118;23;20564;-89
2022/05/31 13:28:05;;;;;;;0.90;0.90;;;22.90;67.00;;;;;;6185103;23;20183;-88
2022/05/31 13:30:40;;;;;;;1.65;1.10;;;22.90;63.50;;;;;;6136381;23;20255;-88
2022/05/31 13:33:19;;;;;;;1.73;1.63;;;22.90;63.30;;;;;;6187173;23;20140;-88
2022/05/31 13:35:55;;;;;;;1.20;1.10;;;22.90;65.10;;;;;;6187896;23;20244;-87
2022/05/31 13:38:26;;;;;;;2.60;2.08;;;23.10;62.80;;;;;;6186767;23;20152;-89
2022/05/31 13:40:56;;;;;;;1.67;1.05;;;23.10;61.20;;;;;;6186849;23;20243;-87
2022/05/31 13:43:28;;;;;;;2.42;1.25;;;23.10;61.90;;;;;;6199337;23;20159;-88
2022/05/31 13:46:02;;;;;;;1.08;0.93;;;23.00;64.40;;;;;;6205969;23;20155;-87
2022/05/31 13:48:38;;;;;;;1.20;1.10;;;23.00;65.20;;;;;;6194292;23;20175;-87
2022/05/31 13:51:10;;;;;;;0.90;0.90;;;23.00;59.80;;;;;;6206544;23;20611;-86
2022/05/31 13:53:40;;;;;;;1.23;1.13;;;22.90;58.80;;;;;;6174526;23;20180;-87
2022/05/31 13:56:06;;;;;;;3.80;1.10;;;;;;;;;;6195845;23;20216;-86
2022/05/31 13:58:37;;;;;;;1.67;1.58;;;22.70;58.90;;;;;;6191051;23;20161;-86
2022/05/31 14:01:19;;;;;;;1.20;1.10;;;22.60;58.90;;;;;;6202473;23;20216;-87
2022/05/31 14:03:45;;;;;;;3.83;1.50;;;22.60;60.00;;;;;;6202586;23;20157;-88
2022/05/31 14:06:37;;;;;;;1.52;1.42;;;22.30;58.10;;;;;;6195545;23;20232;-91
2022/05/31 14:09:06;;;;;;;1.40;0.90;;;22.40;60.00;;;;;;6184491;23;20167;-87
2022/05/31 14:11:46;;;;;;;1.05;1.00;;;22.60;61.90;;;;;;6186251;23;20200;-87
2022/05/31 14:14:30;;;;;;;1.55;1.20;;;22.40;60.10;;;;;;6186850;23;20186;-84
2022/05/31 14:16:58;;;;;;;1.73;1.33;;;22.40;58.80;;;;;;6185793;23;20271;-84
2022/05/31 14:20:07;;;;;;;;;;;;;;;;;;;;;
2022/05/31 14:22:37;;;;;;;1.27;1.17;;;22.30;61.60;;;;;;6162212;23;20247;-91